sensor_id;sensor_type;location;lat;lon;timestamp;pressure;altitude;pressure_sealevel;temperature;humidity
55660;BME280;41534;53.550;9.964;2024-02-14T00:02:00;101283.94;;;22.50;46.54
55660;BME280;41534;53.550;9.964;2024-02-14T00:05:00;101280.78;;;22.47;46.79
55660;BME280;41534;53.550;9.964;2024-02-14T00:08:00;101282.00;;;22.44;46.98
55660;BME280;41534;53.550;9.964;2024-02-14T00:11:01;101276.94;;;22.41;47.00
55660;BME280;41534;53.550;9.964;2024-02-14T00:14:01;101277.13;;;22.40;47.12
55660;BME280;41534;53.550;9.964;2024-02-14T00:17:01;101283.16;;;22.35;47.16
55660;BME280;41534;53.550;9.964;2024-02-14T00:20:02;101274.13;;;22.35;47.10
55660;BME280;41534;53.550;9.964;2024-02-14T00:23:03;101272.81;;;22.31;46.98
55660;BME280;41534;53.550;9.964;2024-02-14T00:26:03;101274.06;;;22.28;47.27
55660;BME280;41534;53.550;9.964;2024-02-14T00:29:04;101275.50;;;22.24;47.19
55660;BME280;41534;53.550;9.964;2024-02-14T00:32:04;101272.13;;;22.22;47.17
55660;BME280;41534;53.550;9.964;2024-02-14T00:35:04;101272.28;;;22.20;47.10
55660;BME280;41534;53.550;9.964;2024-02-14T00:38:05;101266.38;;;22.17;47.05
55660;BME280;41534;53.550;9.964;2024-02-14T00:41:05;101263.00;;;22.15;47.02
55660;BME280;41534;53.550;9.964;2024-02-14T00:44:05;101252.47;;;22.12;47.16
55660;BME280;41534;53.550;9.964;2024-02-14T00:47:06;101244.66;;;22.09;47.27
55660;BME280;41534;53.550;9.964;2024-02-14T00:50:06;101253.88;;;22.08;47.26
55660;BME280;41534;53.550;9.964;2024-02-14T00:53:07;101258.69;;;22.06;47.23
55660;BME280;41534;53.550;9.964;2024-02-14T00:56:07;101259.03;;;22.03;47.22
55660;BME280;41534;53.550;9.964;2024-02-14T00:59:07;101247.47;;;22.01;47.24
55660;BME280;41534;53.550;9.964;2024-02-14T01:02:07;101254.16;;;21.98;47.13
55660;BME280;41534;53.550;9.964;2024-02-14T01:05:08;101249.94;;;21.95;47.20
55660;BME280;41534;53.550;9.964;2024-02-14T01:08:08;101248.44;;;21.93;47.35
55660;BME280;41534;53.550;9.964;2024-02-14T01:11:09;101245.91;;;21.91;47.38
55660;BME280;41534;53.550;9.964;2024-02-14T01:14:09;101251.53;;;21.90;47.31
55660;BME280;41534;53.550;9.964;2024-02-14T01:17:09;101241.88;;;21.87;47.18
55660;BME280;41534;53.550;9.964;2024-02-14T01:20:10;101243.91;;;21.85;47.24
55660;BME280;41534;53.550;9.964;2024-02-14T01:23:10;101240.53;;;21.83;47.21
55660;BME280;41534;53.550;9.964;2024-02-14T01:26:11;101237.16;;;21.81;47.33
55660;BME280;41534;53.550;9.964;2024-02-14T01:29:11;101239.44;;;21.78;47.32
55660;BME280;41534;53.550;9.964;2024-02-14T01:32:11;101234.16;;;21.76;47.30
55660;BME280;41534;53.550;9.964;2024-02-14T01:35:11;101221.56;;;21.75;47.48
55660;BME280;41534;53.550;9.964;2024-02-14T01:38:12;101221.94;;;21.72;47.46
55660;BME280;41534;53.550;9.964;2024-02-14T01:41:12;101216.69;;;21.71;47.22
55660;BME280;41534;53.550;9.964;2024-02-14T01:44:12;101212.44;;;21.68;47.19
55660;BME280;41534;53.550;9.964;2024-02-14T01:47:13;101212.81;;;21.65;47.37
55660;BME280;41534;53.550;9.964;2024-02-14T01:50:14;101210.47;;;21.62;47.20
55660;BME280;41534;53.550;9.964;2024-02-14T01:53:14;101209.81;;;21.60;47.19
55660;BME280;41534;53.550;9.964;2024-02-14T01:56:15;101202.88;;;21.57;47.23
55660;BME280;41534;53.550;9.964;2024-02-14T01:59:15;101207.69;;;21.55;47.07
55660;BME280;41534;53.550;9.964;2024-02-14T02:02:15;101205.34;;;21.52;46.98
55660;BME280;41534;53.550;9.964;2024-02-14T02:05:16;101191.88;;;21.51;46.75
55660;BME280;41534;53.550;9.964;2024-02-14T02:08:16;101196.66;;;21.49;46.71
55660;BME280;41534;53.550;9.964;2024-02-14T02:11:17;101183.41;;;21.46;46.60
55660;BME280;41534;53.550;9.964;2024-02-14T02:14:17;101190.09;;;21.43;46.48
55660;BME280;41534;53.550;9.964;2024-02-14T02:17:17;101187.56;;;21.42;46.16
55660;BME280;41534;53.550;9.964;2024-02-14T02:20:18;101181.47;;;21.40;46.39
55660;BME280;41534;53.550;9.964;2024-02-14T02:23:18;101180.81;;;21.38;46.26
55660;BME280;41534;53.550;9.964;2024-02-14T02:26:18;101178.44;;;21.34;46.02
55660;BME280;41534;53.550;9.964;2024-02-14T02:29:18;101164.16;;;21.32;45.90
55660;BME280;41534;53.550;9.964;2024-02-14T02:32:19;101163.69;;;21.29;45.76
55660;BME280;41534;53.550;9.964;2024-02-14T02:35:19;101163.88;;;21.27;45.82
55660;BME280;41534;53.550;9.964;2024-02-14T02:38:19;101147.91;;;21.24;45.56
55660;BME280;41534;53.550;9.964;2024-02-14T02:41:19;101150.81;;;21.23;45.83
55660;BME280;41534;53.550;9.964;2024-02-14T02:44:20;101153.72;;;21.21;45.64
55660;BME280;41534;53.550;9.964;2024-02-14T02:47:20;101151.38;;;21.18;45.60
55660;BME280;41534;53.550;9.964;2024-02-14T02:50:20;101136.22;;;21.16;45.60
55660;BME280;41534;53.550;9.964;2024-02-14T02:53:21;101139.34;;;21.13;45.63
55660;BME280;41534;53.550;9.964;2024-02-14T02:56:21;101136.78;;;21.11;45.71
55660;BME280;41534;53.550;9.964;2024-02-14T02:59:21;101129.84;;;21.08;45.73
55660;BME280;41534;53.550;9.964;2024-02-14T03:02:21;101132.97;;;21.05;45.57
55660;BME280;41534;53.550;9.964;2024-02-14T03:05:22;101138.59;;;21.04;45.63
55660;BME280;41534;53.550;9.964;2024-02-14T03:08:22;101129.09;;;21.00;45.50
55660;BME280;41534;53.550;9.964;2024-02-14T03:11:23;101128.44;;;20.98;45.49
55660;BME280;41534;53.550;9.964;2024-02-14T03:14:23;101122.34;;;20.96;45.35
55660;BME280;41534;53.550;9.964;2024-02-14T03:17:23;101127.97;;;20.94;45.46
55660;BME280;41534;53.550;9.964;2024-02-14T03:20:24;101116.59;;;20.91;45.35
55660;BME280;41534;53.550;9.964;2024-02-14T03:23:24;101116.81;;;20.89;45.31
55660;BME280;41534;53.550;9.964;2024-02-14T03:26:24;101119.91;;;20.86;45.11
55660;BME280;41534;53.550;9.964;2024-02-14T03:29:25;101111.06;;;20.84;45.32
55660;BME280;41534;53.550;9.964;2024-02-14T03:32:25;101107.50;;;20.84;45.12
55660;BME280;41534;53.550;9.964;2024-02-14T03:35:25;101087.94;;;20.80;45.08
55660;BME280;41534;53.550;9.964;2024-02-14T03:38:26;101093.59;;;20.78;44.99
55660;BME280;41534;53.550;9.964;2024-02-14T03:41:27;101083.91;;;20.76;45.08
55660;BME280;41534;53.550;9.964;2024-02-14T03:44:27;101085.16;;;20.73;45.09
55660;BME280;41534;53.550;9.964;2024-02-14T03:47:28;101084.50;;;20.71;45.08
55660;BME280;41534;53.550;9.964;2024-02-14T03:50:28;101087.41;;;20.70;45.12
55660;BME280;41534;53.550;9.964;2024-02-14T03:53:29;101082.16;;;20.68;44.90
55660;BME280;41534;53.550;9.964;2024-02-14T03:56:29;101078.78;;;20.66;44.91
55660;BME280;41534;53.550;9.964;2024-02-14T03:59:29;101072.63;;;20.64;44.86
55660;BME280;41534;53.550;9.964;2024-02-14T04:02:30;101082.88;;;20.62;44.81
55660;BME280;41534;53.550;9.964;2024-02-14T04:05:30;101074.06;;;20.60;44.70
55660;BME280;41534;53.550;9.964;2024-02-14T04:08:30;101071.50;;;20.59;44.66
55660;BME280;41534;53.550;9.964;2024-02-14T04:11:30;101074.44;;;20.57;44.72
55660;BME280;41534;53.550;9.964;2024-02-14T04:14:31;101073.78;;;20.55;44.51
55660;BME280;41534;53.550;9.964;2024-02-14T04:17:31;101072.09;;;20.54;44.35
55660;BME280;41534;53.550;9.964;2024-02-14T04:20:31;101069.75;;;20.51;44.61
55660;BME280;41534;53.550;9.964;2024-02-14T04:23:32;101059.88;;;20.50;44.52
55660;BME280;41534;53.550;9.964;2024-02-14T04:26:33;101061.06;;;20.47;44.51
55660;BME280;41534;53.550;9.964;2024-02-14T04:29:33;101058.72;;;20.44;44.42
55660;BME280;41534;53.550;9.964;2024-02-14T04:32:34;101050.75;;;20.43;44.46
55660;BME280;41534;53.550;9.964;2024-02-14T04:35:34;101050.94;;;20.41;44.53
55660;BME280;41534;53.550;9.964;2024-02-14T04:38:34;101042.94;;;20.40;44.39
55660;BME280;41534;53.550;9.964;2024-02-14T04:41:34;101044.16;;;20.37;44.46
55660;BME280;41534;53.550;9.964;2024-02-14T04:44:35;101046.03;;;20.37;44.31
55660;BME280;41534;53.550;9.964;2024-02-14T04:47:35;101038.25;;;20.34;44.32
55660;BME280;41534;53.550;9.964;2024-02-14T04:50:36;101037.59;;;20.32;44.41
55660;BME280;41534;53.550;9.964;2024-02-14T04:53:36;101033.19;;;20.31;44.30
55660;BME280;41534;53.550;9.964;2024-02-14T04:56:36;101030.81;;;20.28;44.20
55660;BME280;41534;53.550;9.964;2024-02-14T04:59:37;101018.22;;;20.27;44.21
55660;BME280;41534;53.550;9.964;2024-02-14T05:02:37;101024.72;;;20.26;44.51
55660;BME280;41534;53.550;9.964;2024-02-14T05:05:37;101027.63;;;20.24;44.29
55660;BME280;41534;53.550;9.964;2024-02-14T05:08:38;101024.25;;;20.22;43.99
55660;BME280;41534;53.550;9.964;2024-02-14T05:11:38;101016.28;;;20.21;44.18
55660;BME280;41534;53.550;9.964;2024-02-14T05:14:38;101015.81;;;20.17;44.13
55660;BME280;41534;53.550;9.964;2024-02-14T05:17:42;101014.13;;;20.16;44.07
55660;BME280;41534;53.550;9.964;2024-02-14T05:20:42;101016.00;;;20.15;44.07
55660;BME280;41534;53.550;9.964;2024-02-14T05:23:42;101012.63;;;20.13;43.98
55660;BME280;41534;53.550;9.964;2024-02-14T05:26:43;101014.66;;;20.11;43.97
55660;BME280;41534;53.550;9.964;2024-02-14T05:29:43;101012.31;;;20.08;43.95
55660;BME280;41534;53.550;9.964;2024-02-14T05:32:43;101020.66;;;20.07;44.13
55660;BME280;41534;53.550;9.964;2024-02-14T05:35:43;101013.53;;;20.06;43.99
55660;BME280;41534;53.550;9.964;2024-02-14T05:38:44;101014.75;;;20.03;44.07
55660;BME280;41534;53.550;9.964;2024-02-14T05:41:44;101002.16;;;20.02;43.99
55660;BME280;41534;53.550;9.964;2024-02-14T05:44:44;101009.66;;;20.00;44.11
55660;BME280;41534;53.550;9.964;2024-02-14T05:47:45;101006.28;;;19.98;44.05
55660;BME280;41534;53.550;9.964;2024-02-14T05:50:45;101017.38;;;19.97;43.92
55660;BME280;41534;53.550;9.964;2024-02-14T05:53:45;101000.34;;;19.95;44.11
55660;BME280;41534;53.550;9.964;2024-02-14T05:56:46;100993.59;;;19.91;43.91
55660;BME280;41534;53.550;9.964;2024-02-14T05:59:46;101010.75;;;19.91;43.87
55660;BME280;41534;53.550;9.964;2024-02-14T06:02:47;101011.78;;;19.90;43.99
55660;BME280;41534;53.550;9.964;2024-02-14T06:05:47;101004.66;;;19.89;43.81
55660;BME280;41534;53.550;9.964;2024-02-14T06:08:48;101004.00;;;19.87;43.60
55660;BME280;41534;53.550;9.964;2024-02-14T06:11:48;100998.75;;;19.85;43.88
55660;BME280;41534;53.550;9.964;2024-02-14T06:14:49;100999.78;;;19.84;43.83
55660;BME280;41534;53.550;9.964;2024-02-14T06:17:49;100991.81;;;19.83;43.73
55660;BME280;41534;53.550;9.964;2024-02-14T06:20:49;100992.84;;;19.82;43.89
55660;BME280;41534;53.550;9.964;2024-02-14T06:23:50;100985.72;;;19.81;43.92
55660;BME280;41534;53.550;9.964;2024-02-14T06:26:50;100985.22;;;19.77;43.91
55660;BME280;41534;53.550;9.964;2024-02-14T06:29:50;100993.56;;;19.76;43.81
55660;BME280;41534;53.550;9.964;2024-02-14T06:32:50;100984.75;;;19.74;43.87
55660;BME280;41534;53.550;9.964;2024-02-14T06:35:51;100982.22;;;19.72;43.80
55660;BME280;41534;53.550;9.964;2024-02-14T06:38:51;100984.09;;;19.72;43.85
55660;BME280;41534;53.550;9.964;2024-02-14T06:41:51;100987.84;;;19.71;43.90
55660;BME280;41534;53.550;9.964;2024-02-14T06:44:51;100989.72;;;19.70;43.74
55660;BME280;41534;53.550;9.964;2024-02-14T06:47:52;100990.56;;;19.71;44.03
55660;BME280;41534;53.550;9.964;2024-02-14T06:50:52;100989.25;;;19.67;43.80
55660;BME280;41534;53.550;9.964;2024-02-14T06:53:52;100997.22;;;19.68;43.71
55660;BME280;41534;53.550;9.964;2024-02-14T06:56:52;100997.41;;;19.67;43.69
55660;BME280;41534;53.550;9.964;2024-02-14T06:59:53;100986.88;;;19.64;43.58
55660;BME280;41534;53.550;9.964;2024-02-14T07:02:53;100987.91;;;19.63;43.76
55660;BME280;41534;53.550;9.964;2024-02-14T07:05:53;100988.06;;;19.61;43.59
55660;BME280;41534;53.550;9.964;2024-02-14T07:08:54;100991.16;;;19.58;43.79
55660;BME280;41534;53.550;9.964;2024-02-14T07:11:54;100987.78;;;19.56;43.68
55660;BME280;41534;53.550;9.964;2024-02-14T07:14:54;100985.25;;;19.54;43.77
55660;BME280;41534;53.550;9.964;2024-02-14T07:17:55;100986.94;;;19.55;43.70
55660;BME280;41534;53.550;9.964;2024-02-14T07:20:55;100991.53;;;19.55;43.67
55660;BME280;41534;53.550;9.964;2024-02-14T07:23:55;100994.41;;;19.53;43.66
55660;BME280;41534;53.550;9.964;2024-02-14T07:26:56;100995.44;;;19.52;43.75
55660;BME280;41534;53.550;9.964;2024-02-14T07:29:56;100998.16;;;19.52;43.66
55660;BME280;41534;53.550;9.964;2024-02-14T07:32:56;100992.91;;;19.51;43.65
55660;BME280;41534;53.550;9.964;2024-02-14T07:35:57;100993.94;;;19.50;43.60
55660;BME280;41534;53.550;9.964;2024-02-14T07:38:57;100997.00;;;19.47;43.80
55660;BME280;41534;53.550;9.964;2024-02-14T07:41:57;100990.72;;;19.46;43.70
55660;BME280;41534;53.550;9.964;2024-02-14T07:44:58;100986.31;;;19.45;43.63
55660;BME280;41534;53.550;9.964;2024-02-14T07:47:58;100983.59;;;19.45;43.66
55660;BME280;41534;53.550;9.964;2024-02-14T07:50:59;100989.22;;;19.44;43.58
55660;BME280;41534;53.550;9.964;2024-02-14T07:53:59;100982.91;;;19.43;43.63
55660;BME280;41534;53.550;9.964;2024-02-14T07:56:59;100981.41;;;19.41;43.67
55660;BME280;41534;53.550;9.964;2024-02-14T07:59:59;100981.41;;;19.41;43.62
55660;BME280;41534;53.550;9.964;2024-02-14T08:03:00;100972.41;;;19.40;43.55
55660;BME280;41534;53.550;9.964;2024-02-14T08:06:00;100977.31;;;19.45;43.70
55660;BME280;41534;53.550;9.964;2024-02-14T08:09:00;100976.78;;;19.49;43.51
55660;BME280;41534;53.550;9.964;2024-02-14T08:12:00;100985.25;;;19.54;43.78
55660;BME280;41534;53.550;9.964;2024-02-14T08:15:01;100980.09;;;19.60;43.87
55660;BME280;41534;53.550;9.964;2024-02-14T08:18:01;100980.06;;;19.68;44.08
55660;BME280;41534;53.550;9.964;2024-02-14T08:21:01;100978.59;;;19.80;44.28
55660;BME280;41534;53.550;9.964;2024-02-14T08:24:02;100979.63;;;19.94;44.29
55660;BME280;41534;53.550;9.964;2024-02-14T08:27:02;100975.72;;;20.11;44.34
55660;BME280;41534;53.550;9.964;2024-02-14T08:30:03;100982.47;;;20.30;44.31
55660;BME280;41534;53.550;9.964;2024-02-14T08:33:03;100971.44;;;20.46;44.05
55660;BME280;41534;53.550;9.964;2024-02-14T08:36:05;100972.66;;;20.58;44.04
55660;BME280;41534;53.550;9.964;2024-02-14T08:39:06;100978.66;;;20.68;43.72
55660;BME280;41534;53.550;9.964;2024-02-14T08:42:07;100972.06;;;20.77;43.53
55660;BME280;41534;53.550;9.964;2024-02-14T08:45:08;100964.25;;;20.89;43.66
55660;BME280;41534;53.550;9.964;2024-02-14T08:48:08;100977.00;;;21.03;43.49
55660;BME280;41534;53.550;9.964;2024-02-14T08:51:09;100977.31;;;21.15;43.63
55660;BME280;41534;53.550;9.964;2024-02-14T08:54:09;100968.66;;;21.26;43.67
55660;BME280;41534;53.550;9.964;2024-02-14T08:57:09;100980.75;;;21.39;43.53
55660;BME280;41534;53.550;9.964;2024-02-14T09:00:10;100979.56;;;21.48;43.59
55660;BME280;41534;53.550;9.964;2024-02-14T09:03:10;100979.25;;;21.57;43.50
55660;BME280;41534;53.550;9.964;2024-02-14T09:06:10;100979.94;;;21.66;43.71
55660;BME280;41534;53.550;9.964;2024-02-14T09:09:11;100980.66;;;21.75;43.45
55660;BME280;41534;53.550;9.964;2024-02-14T09:12:11;100986.81;;;21.83;43.59
55660;BME280;41534;53.550;9.964;2024-02-14T09:15:11;100981.44;;;21.90;43.47
55660;BME280;41534;53.550;9.964;2024-02-14T09:18:12;100978.53;;;21.98;43.79
55660;BME280;41534;53.550;9.964;2024-02-14T09:21:12;100975.03;;;22.04;43.47
55660;BME280;41534;53.550;9.964;2024-02-14T09:24:12;100975.09;;;22.11;43.63
55660;BME280;41534;53.550;9.964;2024-02-14T09:27:12;100975.13;;;22.17;43.74
55660;BME280;41534;53.550;9.964;2024-02-14T09:30:13;100978.13;;;22.22;43.52
55660;BME280;41534;53.550;9.964;2024-02-14T09:33:13;100977.31;;;22.29;43.56
55660;BME280;41534;53.550;9.964;2024-02-14T09:36:13;100977.31;;;22.29;43.24
55660;BME280;41534;53.550;9.964;2024-02-14T09:39:13;100978.16;;;22.29;43.08
55660;BME280;41534;53.550;9.964;2024-02-14T09:42:16;100976.69;;;22.33;43.09
55660;BME280;41534;53.550;9.964;2024-02-14T09:45:16;100982.41;;;22.38;43.25
55660;BME280;41534;53.550;9.964;2024-02-14T09:48:17;100986.44;;;22.42;43.25
55660;BME280;41534;53.550;9.964;2024-02-14T09:51:19;100981.41;;;22.46;43.27
55660;BME280;41534;53.550;9.964;2024-02-14T09:54:21;100982.88;;;22.48;43.18
55660;BME280;41534;53.550;9.964;2024-02-14T09:57:22;100989.63;;;22.52;42.87
55660;BME280;41534;53.550;9.964;2024-02-14T10:00:23;100986.69;;;22.54;42.81
55660;BME280;41534;53.550;9.964;2024-02-14T10:10:39;101001.88;;;22.63;42.91
55660;BME280;41534;53.550;9.964;2024-02-14T10:13:40;100985.91;;;22.67;42.92
55660;BME280;41534;53.550;9.964;2024-02-14T10:16:40;100997.28;;;22.70;42.83
55660;BME280;41534;53.550;9.964;2024-02-14T10:19:41;101003.22;;;22.74;42.97
55660;BME280;41534;53.550;9.964;2024-02-14T10:22:41;101001.09;;;22.76;42.78
55660;BME280;41534;53.550;9.964;2024-02-14T10:25:41;100995.44;;;22.77;42.93
55660;BME280;41534;53.550;9.964;2024-02-14T10:28:42;100999.66;;;22.80;42.92
55660;BME280;41534;53.550;9.964;2024-02-14T10:31:42;101002.00;;;22.83;42.85
55660;BME280;41534;53.550;9.964;2024-02-14T10:34:43;100995.50;;;22.84;42.99
55660;BME280;41534;53.550;9.964;2024-02-14T10:37:44;101009.78;;;22.86;43.10
55660;BME280;41534;53.550;9.964;2024-02-14T10:40:47;101005.81;;;22.89;42.88
55660;BME280;41534;53.550;9.964;2024-02-14T10:43:47;101009.16;;;22.91;42.96
55660;BME280;41534;53.550;9.964;2024-02-14T10:46:48;101006.06;;;22.94;42.85
55660;BME280;41534;53.550;9.964;2024-02-14T10:49:52;101016.38;;;22.98;43.04
55660;BME280;41534;53.550;9.964;2024-02-14T10:52:57;101020.38;;;23.02;42.96
55660;BME280;41534;53.550;9.964;2024-02-14T10:55:57;101011.97;;;23.04;43.01
55660;BME280;41534;53.550;9.964;2024-02-14T10:58:57;101021.63;;;23.06;43.43
55660;BME280;41534;53.550;9.964;2024-02-14T11:01:58;101019.38;;;23.10;42.98
55660;BME280;41534;53.550;9.964;2024-02-14T11:04:58;101016.41;;;23.11;43.05
55660;BME280;41534;53.550;9.964;2024-02-14T11:08:07;101017.06;;;23.13;43.21
55660;BME280;41534;53.550;9.964;2024-02-14T11:11:08;101027.56;;;23.16;43.17
55660;BME280;41534;53.550;9.964;2024-02-14T11:14:08;101018.31;;;23.17;43.19
55660;BME280;41534;53.550;9.964;2024-02-14T11:17:19;101026.94;;;23.21;43.21
55660;BME280;41534;53.550;9.964;2024-02-14T11:20:20;101016.84;;;23.22;43.14
55660;BME280;41534;53.550;9.964;2024-02-14T11:23:22;101016.66;;;23.23;43.39
55660;BME280;41534;53.550;9.964;2024-02-14T11:26:23;101019.16;;;23.25;43.18
55660;BME280;41534;53.550;9.964;2024-02-14T11:29:29;101018.78;;;23.28;43.52
55660;BME280;41534;53.550;9.964;2024-02-14T11:32:29;101026.78;;;23.29;43.20
55660;BME280;41534;53.550;9.964;2024-02-14T11:35:29;101030.34;;;23.30;43.12
55660;BME280;41534;53.550;9.964;2024-02-14T11:38:31;101027.19;;;23.33;42.84
55660;BME280;41534;53.550;9.964;2024-02-14T11:41:35;101030.78;;;23.33;42.89
55660;BME280;41534;53.550;9.964;2024-02-14T11:44:35;101038.78;;;23.35;42.87
55660;BME280;41534;53.550;9.964;2024-02-14T11:47:35;101041.09;;;23.31;42.64
55660;BME280;41534;53.550;9.964;2024-02-14T11:50:36;101040.41;;;23.23;42.58
55660;BME280;41534;53.550;9.964;2024-02-14T11:53:38;101037.03;;;23.21;42.78
55660;BME280;41534;53.550;9.964;2024-02-14T11:56:39;101035.34;;;23.20;42.51
55660;BME280;41534;53.550;9.964;2024-02-14T11:59:39;101042.50;;;23.21;42.67
55660;BME280;41534;53.550;9.964;2024-02-14T12:02:39;101041.03;;;23.18;42.58
55660;BME280;41534;53.550;9.964;2024-02-14T12:05:40;101043.78;;;23.18;42.48
55660;BME280;41534;53.550;9.964;2024-02-14T12:08:40;101041.44;;;23.15;42.43
55660;BME280;41534;53.550;9.964;2024-02-14T12:11:41;101041.88;;;23.12;42.72
55660;BME280;41534;53.550;9.964;2024-02-14T12:14:44;101039.53;;;23.09;42.74
55660;BME280;41534;53.550;9.964;2024-02-14T12:17:47;101045.84;;;23.09;42.69
55660;BME280;41534;53.550;9.964;2024-02-14T12:20:47;101040.19;;;23.11;42.72
55660;BME280;41534;53.550;9.964;2024-02-14T12:23:47;101044.81;;;23.17;42.60
55660;BME280;41534;53.550;9.964;2024-02-14T12:26:48;101054.72;;;23.25;42.51
55660;BME280;41534;53.550;9.964;2024-02-14T12:29:48;101055.41;;;23.33;42.62
55660;BME280;41534;53.550;9.964;2024-02-14T12:32:58;101055.41;;;23.40;42.36
55660;BME280;41534;53.550;9.964;2024-02-14T12:35:59;101059.22;;;23.45;42.26
55660;BME280;41534;53.550;9.964;2024-02-14T12:38:59;101061.34;;;23.50;42.43
55660;BME280;41534;53.550;9.964;2024-02-14T12:42:00;101064.50;;;23.54;42.30
55660;BME280;41534;53.550;9.964;2024-02-14T12:45:00;101058.63;;;23.57;42.35
55660;BME280;41534;53.550;9.964;2024-02-14T12:48:01;101066.63;;;23.58;42.18
55660;BME280;41534;53.550;9.964;2024-02-14T12:51:01;101062.22;;;23.57;42.28
55660;BME280;41534;53.550;9.964;2024-02-14T12:54:02;101057.75;;;23.56;42.20
55660;BME280;41534;53.550;9.964;2024-02-14T12:57:02;101064.69;;;23.52;42.19
55660;BME280;41534;53.550;9.964;2024-02-14T13:00:02;101066.81;;;23.50;42.21
55660;BME280;41534;53.550;9.964;2024-02-14T13:03:03;101069.31;;;23.45;42.18
55660;BME280;41534;53.550;9.964;2024-02-14T13:06:04;101057.09;;;23.41;42.14
55660;BME280;41534;53.550;9.964;2024-02-14T13:09:04;101069.69;;;23.35;42.99
55660;BME280;41534;53.550;9.964;2024-02-14T13:12:04;101064.84;;;23.31;42.55
55660;BME280;41534;53.550;9.964;2024-02-14T13:15:05;101069.06;;;23.27;42.57
55660;BME280;41534;53.550;9.964;2024-02-14T13:18:06;101069.44;;;23.24;42.67
55660;BME280;41534;53.550;9.964;2024-02-14T13:21:06;101064.59;;;23.19;43.21
55660;BME280;41534;53.550;9.964;2024-02-14T13:24:06;101072.78;;;23.19;43.13
55660;BME280;41534;53.550;9.964;2024-02-14T13:27:08;101066.06;;;23.22;43.18
55660;BME280;41534;53.550;9.964;2024-02-14T13:30:08;101071.97;;;23.25;43.13
55660;BME280;41534;53.550;9.964;2024-02-14T13:33:09;101068.22;;;23.33;43.41
55660;BME280;41534;53.550;9.964;2024-02-14T13:36:09;101069.28;;;23.38;43.67
55660;BME280;41534;53.550;9.964;2024-02-14T13:39:09;101084.69;;;23.46;43.64
55660;BME280;41534;53.550;9.964;2024-02-14T13:42:09;101075.84;;;23.51;43.66
55660;BME280;41534;53.550;9.964;2024-02-14T13:45:10;101079.47;;;23.58;43.71
55660;BME280;41534;53.550;9.964;2024-02-14T13:48:11;101079.25;;;23.59;43.52
55660;BME280;41534;53.550;9.964;2024-02-14T13:51:11;101075.28;;;23.62;43.55
55660;BME280;41534;53.550;9.964;2024-02-14T13:54:11;101080.56;;;23.63;43.78
55660;BME280;41534;53.550;9.964;2024-02-14T13:57:12;101082.66;;;23.61;43.52
55660;BME280;41534;53.550;9.964;2024-02-14T14:00:12;101084.72;;;23.59;43.70
55660;BME280;41534;53.550;9.964;2024-02-14T14:03:13;101080.53;;;23.57;43.77
55660;BME280;41534;53.550;9.964;2024-02-14T14:06:13;101082.78;;;23.53;43.79
55660;BME280;41534;53.550;9.964;2024-02-14T14:09:13;101079.63;;;23.50;43.91
55660;BME280;41534;53.550;9.964;2024-02-14T14:12:14;101081.94;;;23.46;43.77
55660;BME280;41534;53.550;9.964;2024-02-14T14:15:14;101079.81;;;23.41;44.02
55660;BME280;41534;53.550;9.964;2024-02-14T14:18:14;101086.75;;;23.37;44.08
55660;BME280;41534;53.550;9.964;2024-02-14T14:21:15;101080.00;;;23.33;43.99
55660;BME280;41534;53.550;9.964;2024-02-14T14:24:15;101082.53;;;23.28;44.14
55660;BME280;41534;53.550;9.964;2024-02-14T14:27:15;101092.16;;;23.24;44.28
55660;BME280;41534;53.550;9.964;2024-02-14T14:30:16;101091.53;;;23.22;44.05
55660;BME280;41534;53.550;9.964;2024-02-14T14:33:16;101089.63;;;23.23;44.26
55660;BME280;41534;53.550;9.964;2024-02-14T14:36:16;101095.34;;;23.28;44.29
55660;BME280;41534;53.550;9.964;2024-02-14T14:39:18;101086.31;;;23.34;44.25
55660;BME280;41534;53.550;9.964;2024-02-14T14:42:18;101093.31;;;23.43;44.15
55660;BME280;41534;53.550;9.964;2024-02-14T14:45:18;101092.69;;;23.54;44.10
55660;BME280;41534;53.550;9.964;2024-02-14T14:48:19;101108.53;;;23.65;44.14
55660;BME280;41534;53.550;9.964;2024-02-14T14:51:19;101094.66;;;23.73;44.01
55660;BME280;41534;53.550;9.964;2024-02-14T14:54:19;101096.59;;;23.80;43.78
55660;BME280;41534;53.550;9.964;2024-02-14T14:57:20;101093.44;;;23.83;43.83
55660;BME280;41534;53.550;9.964;2024-02-14T15:00:20;101091.31;;;23.85;43.62
55660;BME280;41534;53.550;9.964;2024-02-14T15:03:21;101099.53;;;23.85;43.87
55660;BME280;41534;53.550;9.964;2024-02-14T15:06:21;101103.31;;;23.84;43.87
55660;BME280;41534;53.550;9.964;2024-02-14T15:09:22;101100.78;;;23.82;43.90
55660;BME280;41534;53.550;9.964;2024-02-14T15:12:22;101104.13;;;23.77;43.78
55660;BME280;41534;53.550;9.964;2024-02-14T15:15:22;101103.72;;;23.74;43.60
55660;BME280;41534;53.550;9.964;2024-02-14T15:18:22;101106.22;;;23.69;43.63
55660;BME280;41534;53.550;9.964;2024-02-14T15:21:23;101104.13;;;23.64;43.66
55660;BME280;41534;53.550;9.964;2024-02-14T15:24:23;101106.63;;;23.59;43.56
55660;BME280;41534;53.550;9.964;2024-02-14T15:27:23;101095.63;;;23.53;43.44
55660;BME280;41534;53.550;9.964;2024-02-14T15:30:24;101093.53;;;23.48;43.94
55660;BME280;41534;53.550;9.964;2024-02-14T15:33:25;101110.56;;;23.43;44.17
55660;BME280;41534;53.550;9.964;2024-02-14T15:36:25;101106.53;;;23.39;44.12
55660;BME280;41534;53.550;9.964;2024-02-14T15:39:25;101103.56;;;23.34;44.39
55660;BME280;41534;53.550;9.964;2024-02-14T15:42:26;101103.97;;;23.31;44.45
55660;BME280;41534;53.550;9.964;2024-02-14T15:45:26;101109.88;;;23.28;44.49
55660;BME280;41534;53.550;9.964;2024-02-14T15:48:26;101095.56;;;23.26;44.49
55660;BME280;41534;53.550;9.964;2024-02-14T15:51:27;101095.56;;;23.26;44.44